createdAt,value
2019-04-23T00:00:17.044Z,9.50
2019-04-23T00:03:12.820Z,10.60
2019-04-23T00:09:31.231Z,9.93
2019-04-23T00:12:43.843Z,10.53
2019-04-23T00:15:45.798Z,10.03
2019-04-23T00:18:42.334Z,10.10
2019-04-23T00:21:45.926Z,10.63
2019-04-23T00:27:59.340Z,10.50
2019-04-23T00:31:12.269Z,10.77
2019-04-23T00:34:01.092Z,9.60
2019-04-23T00:37:11.799Z,12.33
2019-04-23T00:40:16.640Z,10.47
2019-04-23T00:43:22.900Z,10.70
2019-04-23T00:46:24.913Z,10.90
2019-04-23T00:49:26.962Z,10.40
2019-04-23T00:52:26.387Z,10.87
2019-04-23T00:55:28.449Z,10.37
2019-04-23T00:58:41.530Z,10.07
2019-04-23T01:01:42.927Z,11.53
2019-04-23T01:04:48.009Z,9.77
2019-04-23T01:07:45.709Z,10.73
2019-04-23T01:14:06.725Z,10.37
2019-04-23T01:17:08.598Z,11.40
2019-04-23T01:20:08.460Z,10.73
2019-04-23T01:22:57.095Z,9.70
2019-04-23T01:26:20.987Z,9.63
2019-04-23T01:29:28.342Z,9.63
2019-04-23T01:35:33.368Z,10.10
2019-04-23T01:41:49.216Z,10.07
2019-04-23T01:44:54.954Z,10.47
2019-04-23T01:50:56.065Z,9.23
2019-04-23T01:53:57.141Z,9.57
2019-04-23T01:57:03.698Z,9.90
2019-04-23T02:03:26.917Z,9.13
2019-04-23T02:06:14.782Z,10.47
2019-04-23T02:09:17.117Z,9.90
2019-04-23T02:12:28.252Z,9.20
2019-04-23T02:15:31.920Z,11.07
2019-04-23T02:18:33.897Z,10.07
2019-04-23T02:21:39.814Z,9.33
2019-04-23T02:24:51.148Z,10.70
2019-04-23T02:27:57.520Z,10.37
2019-04-23T02:31:18.274Z,9.43
2019-04-23T02:34:14.297Z,10.30
2019-04-23T02:37:00.359Z,9.90
2019-04-23T02:40:26.350Z,9.93
2019-04-23T02:43:13.108Z,10.03
2019-04-23T02:52:21.713Z,10.10
2019-04-23T02:55:38.941Z,10.37
2019-04-23T02:58:36.712Z,9.10
2019-04-23T03:04:40.033Z,9.50
2019-04-23T03:10:51.279Z,9.90
2019-04-23T03:13:54.293Z,10.83
2019-04-23T03:16:56.353Z,10.30
2019-04-23T03:29:35.423Z,10.83
2019-04-23T03:38:48.376Z,10.90
2019-04-23T03:41:47.993Z,10.37
2019-04-23T03:47:56.180Z,10.10
2019-04-23T03:50:43.716Z,11.10
2019-04-23T03:54:11.643Z,10.87
2019-04-23T04:03:25.012Z,11.60
2019-04-23T04:06:39.527Z,10.47
2019-04-23T04:12:36.075Z,10.23
2019-04-23T04:19:22.984Z,10.27
2019-04-23T04:21:36.345Z,10.97
2019-04-23T04:31:00.530Z,9.37
2019-04-23T04:37:22.339Z,8.80
2019-04-23T04:58:39.366Z,8.17
2019-04-23T05:01:23.080Z,7.50
2019-04-23T05:10:51.632Z,7.57
2019-04-23T05:16:54.689Z,8.17
2019-04-23T05:19:58.847Z,7.80
2019-04-23T05:26:00.188Z,7.70
2019-04-23T05:32:07.564Z,7.20
2019-04-23T05:35:15.074Z,8.20
2019-04-23T05:38:30.050Z,7.00
2019-04-23T05:41:22.211Z,8.03
2019-04-23T05:44:38.345Z,7.30
2019-04-23T05:47:27.382Z,6.93
2019-04-23T05:50:42.591Z,7.07
2019-04-23T05:53:42.446Z,7.60
2019-04-23T05:56:42.207Z,7.60
2019-04-23T06:05:54.458Z,7.10
2019-04-23T06:08:58.450Z,7.50
2019-04-23T06:12:00.118Z,6.97
2019-04-23T06:15:04.915Z,7.50
2019-04-23T06:18:17.835Z,7.53
2019-04-23T06:21:15.637Z,7.03
2019-04-23T06:24:27.329Z,6.97
2019-04-23T06:27:32.082Z,7.37
2019-04-23T06:30:35.337Z,7.07
2019-04-23T06:33:32.300Z,6.40
2019-04-23T06:36:34.345Z,6.53
2019-04-23T06:43:01.273Z,7.13
2019-04-23T06:46:07.205Z,7.07
2019-04-23T06:49:09.480Z,7.17
2019-04-23T06:52:18.353Z,7.33
2019-04-23T06:55:25.442Z,7.90
2019-04-23T06:58:28.942Z,8.53
2019-04-23T07:01:19.215Z,7.30
2019-04-23T07:07:43.095Z,8.17
2019-04-23T07:10:39.001Z,8.33
2019-04-23T07:13:46.619Z,7.40
2019-04-23T07:16:38.554Z,7.27
2019-04-23T07:19:53.644Z,8.80
2019-04-23T07:22:59.600Z,8.03
2019-04-23T07:26:03.785Z,8.07
2019-04-23T07:32:05.396Z,8.70
2019-04-23T07:35:16.099Z,8.23
2019-04-23T07:38:38.510Z,8.60
2019-04-23T07:41:59.456Z,7.87
2019-04-23T07:51:14.114Z,8.77
2019-04-23T07:54:25.772Z,8.27
2019-04-23T08:00:38.339Z,8.80
2019-04-23T08:03:48.193Z,8.47
2019-04-23T08:06:41.003Z,8.87
2019-04-23T08:09:50.907Z,8.20
2019-04-23T08:12:46.828Z,8.80
2019-04-23T08:15:46.587Z,8.67
2019-04-23T08:18:55.495Z,8.93
2019-04-23T08:22:07.064Z,8.97
2019-04-23T08:25:10.981Z,9.07
2019-04-23T08:28:13.379Z,9.90
2019-04-23T08:31:14.181Z,8.93
2019-04-23T08:37:45.412Z,8.87
2019-04-23T08:40:33.861Z,8.77
2019-04-23T08:43:41.056Z,8.53
2019-04-23T08:46:56.857Z,9.67
2019-04-23T08:50:08.453Z,8.90
2019-04-23T08:53:10.686Z,9.07
2019-04-23T08:56:14.997Z,8.93
2019-04-23T08:59:09.393Z,10.33
2019-04-23T09:05:32.468Z,9.53
2019-04-23T09:11:35.879Z,8.60
2019-04-23T09:14:20.035Z,12.23
2019-04-23T09:20:43.234Z,10.33
2019-04-23T09:23:45.109Z,10.07
2019-04-23T09:26:41.470Z,11.43
2019-04-23T09:29:54.070Z,10.27
2019-04-23T09:32:54.491Z,12.30
2019-04-23T09:36:18.128Z,9.87
2019-04-23T09:39:46.944Z,10.27
2019-04-23T09:43:00.531Z,10.13
2019-04-23T09:46:23.609Z,10.80
2019-04-23T09:49:31.127Z,10.93
2019-04-23T09:55:38.496Z,10.60
2019-04-23T09:58:35.719Z,9.37
2019-04-23T10:01:36.354Z,11.83
2019-04-23T10:04:36.619Z,11.87
2019-04-23T10:07:39.718Z,10.47
2019-04-23T10:10:32.247Z,11.70
2019-04-23T10:13:34.625Z,10.17
2019-04-23T10:16:37.023Z,11.63
2019-04-23T10:19:40.637Z,11.17
2019-04-23T10:22:44.277Z,13.20
2019-04-23T10:25:47.861Z,11.07
2019-04-23T10:28:55.943Z,12.00
2019-04-23T10:31:59.743Z,9.77
2019-04-23T10:35:15.085Z,12.60
2019-04-23T10:38:10.796Z,9.77
2019-04-23T10:41:12.035Z,10.77
2019-04-23T10:44:25.659Z,11.93
2019-04-23T10:48:21.638Z,11.37
2019-04-23T10:51:25.016Z,10.43
2019-04-23T10:57:25.316Z,11.83
2019-04-23T11:00:36.107Z,10.23
2019-04-23T11:04:01.548Z,10.93
2019-04-23T11:06:47.448Z,11.37
2019-04-23T11:13:07.378Z,11.50
2019-04-23T11:19:15.172Z,12.23
2019-04-23T11:22:28.089Z,10.93
2019-04-23T11:25:26.310Z,12.23
2019-04-23T11:28:20.459Z,11.67
2019-04-23T11:31:30.996Z,12.07
2019-04-23T11:34:54.741Z,10.10
2019-04-23T11:37:43.866Z,11.83
2019-04-23T11:40:33.721Z,8.93
2019-04-23T11:43:42.415Z,11.57
2019-04-23T11:46:53.361Z,10.67
2019-04-23T11:49:53.223Z,9.70
2019-04-23T11:52:56.357Z,9.77
2019-04-23T11:55:53.499Z,10.80
2019-04-23T11:59:09.369Z,11.07
2019-04-23T12:02:07.501Z,11.37
2019-04-23T12:08:36.835Z,11.23
2019-04-23T12:12:31.177Z,9.80
2019-04-23T12:14:47.614Z,10.13
2019-04-23T12:17:56.005Z,12.07
2019-04-23T12:21:05.943Z,12.37
2019-04-23T12:24:28.487Z,11.63
2019-04-23T12:27:25.982Z,14.00
2019-04-23T12:30:25.336Z,12.67
2019-04-23T12:33:28.114Z,10.63
2019-04-23T12:36:37.670Z,12.37
2019-04-23T12:39:42.442Z,13.37
2019-04-23T12:45:42.489Z,10.27
2019-04-23T12:48:56.728Z,12.60
2019-04-23T12:51:57.513Z,12.37
2019-04-23T12:55:08.660Z,12.50
2019-04-23T12:58:11.500Z,11.50
2019-04-23T13:01:10.674Z,12.10
2019-04-23T13:04:16.381Z,11.37
2019-04-23T13:07:26.363Z,13.23
2019-04-23T13:10:22.195Z,12.20
2019-04-23T13:16:53.598Z,12.83
2019-04-23T13:22:47.662Z,13.33
2019-04-23T13:25:57.058Z,12.33
2019-04-23T13:29:04.936Z,12.07
2019-04-23T13:32:07.082Z,12.23
2019-04-23T13:35:36.234Z,12.97
2019-04-23T13:44:26.082Z,11.20
2019-04-23T13:47:38.208Z,12.33
2019-04-23T13:50:43.324Z,12.17
2019-04-23T13:57:13.003Z,13.20
2019-04-23T13:59:44.440Z,13.33
2019-04-23T14:02:49.453Z,11.70
2019-04-23T14:06:01.765Z,12.73
2019-04-23T14:12:09.058Z,13.93
2019-04-23T14:15:25.711Z,14.40
2019-04-23T14:18:41.935Z,13.27
2019-04-23T14:24:32.431Z,14.07
2019-04-23T14:33:46.049Z,14.20
2019-04-23T14:36:52.731Z,13.07
2019-04-23T14:39:54.206Z,13.20
2019-04-23T14:43:01.772Z,12.23
2019-04-23T14:49:19.260Z,12.87
2019-04-23T14:52:14.238Z,11.57
2019-04-23T15:01:35.409Z,12.77
2019-04-23T15:04:33.604Z,13.57
2019-04-23T15:07:34.640Z,12.33
2019-04-23T15:13:44.561Z,11.93
2019-04-23T15:16:54.453Z,11.37
2019-04-23T15:20:03.239Z,11.30
2019-04-23T15:23:25.449Z,10.77
2019-04-23T15:27:01.864Z,10.97
2019-04-23T15:28:58.519Z,12.00
2019-04-23T15:32:31.625Z,11.30
2019-04-23T15:35:29.504Z,10.63
2019-04-23T15:41:40.143Z,11.73
2019-04-23T15:44:46.528Z,12.27
2019-04-23T15:47:50.724Z,10.30
2019-04-23T15:50:56.052Z,11.53
2019-04-23T15:53:56.744Z,10.00
2019-04-23T15:57:01.174Z,10.10
2019-04-23T15:59:58.964Z,10.30
2019-04-23T16:02:38.065Z,10.40
2019-04-23T16:05:41.571Z,9.37
2019-04-23T16:09:06.424Z,11.60
2019-04-23T16:12:14.969Z,9.00
2019-04-23T16:15:35.818Z,9.27
2019-04-23T16:18:45.758Z,11.50
2019-04-23T16:21:54.675Z,10.63
2019-04-23T16:24:49.067Z,9.90
2019-04-23T16:27:50.417Z,11.27
2019-04-23T16:30:57.159Z,10.13
2019-04-23T16:37:18.045Z,11.90
2019-04-23T16:40:31.877Z,11.40
2019-04-23T16:43:19.828Z,10.23
2019-04-23T16:46:28.686Z,12.30
2019-04-23T16:52:34.478Z,11.03
2019-04-23T16:55:52.245Z,10.50
2019-04-23T17:01:54.016Z,10.80
2019-04-23T17:04:54.630Z,10.83
2019-04-23T17:08:25.148Z,10.13
2019-04-23T17:14:09.134Z,9.63
2019-04-23T17:16:58.244Z,10.37
2019-04-23T17:20:25.740Z,11.03
2019-04-23T17:29:35.347Z,11.80
2019-04-23T17:32:36.810Z,12.23
2019-04-23T17:36:18.302Z,12.60
2019-04-23T17:48:32.830Z,12.60
2019-04-23T17:51:40.570Z,12.27
2019-04-23T17:57:46.065Z,11.83
2019-04-23T18:01:02.577Z,11.43
2019-04-23T18:04:05.816Z,11.53
2019-04-23T18:07:04.402Z,11.30
2019-04-23T18:10:24.961Z,10.83
2019-04-23T18:13:16.884Z,10.27
2019-04-23T18:19:16.734Z,10.73
2019-04-23T18:22:35.516Z,9.43
2019-04-23T18:28:58.655Z,9.57
2019-04-23T18:32:16.990Z,8.90
2019-04-23T18:35:19.308Z,8.53
2019-04-23T18:38:29.146Z,8.27
2019-04-23T18:41:17.540Z,7.87
2019-04-23T18:44:38.375Z,7.60
2019-04-23T18:47:41.712Z,7.53
2019-04-23T18:50:48.173Z,7.57
2019-04-23T18:57:02.022Z,9.13
2019-04-23T19:03:11.684Z,7.83
2019-04-23T19:10:16.882Z,10.27
2019-04-23T19:16:13.137Z,9.33
2019-04-23T19:22:43.237Z,8.07
2019-04-23T19:25:23.018Z,7.57
2019-04-23T19:28:47.639Z,7.70
2019-04-23T19:31:57.000Z,8.10
2019-04-23T19:35:04.130Z,7.53
2019-04-23T19:38:13.454Z,7.27
2019-04-23T19:41:23.832Z,8.03
2019-04-23T19:44:29.258Z,7.73
2019-04-23T19:50:43.721Z,8.17
2019-04-23T19:56:51.410Z,6.97
2019-04-23T20:06:13.780Z,6.70
2019-04-23T20:12:03.203Z,7.73
2019-04-23T20:18:09.055Z,6.17
2019-04-23T20:21:08.316Z,6.13
2019-04-23T20:24:55.729Z,6.40
2019-04-23T20:27:26.388Z,5.23
2019-04-23T20:34:24.558Z,4.90
2019-04-23T20:37:06.516Z,5.07
2019-04-23T20:40:23.686Z,5.73
2019-04-23T20:43:28.823Z,5.23
2019-04-23T20:46:25.242Z,7.00
2019-04-23T20:49:42.327Z,7.97
2019-04-23T20:52:26.224Z,5.63
2019-04-23T20:58:57.010Z,6.83
2019-04-23T21:02:06.333Z,7.83
2019-04-23T21:05:06.251Z,8.80
2019-04-23T21:08:12.346Z,8.43
2019-04-23T21:11:03.075Z,9.37
2019-04-23T21:14:33.466Z,11.87
2019-04-23T21:17:14.316Z,10.43
2019-04-23T21:20:24.469Z,9.67
2019-04-23T21:23:21.249Z,9.63
2019-04-23T21:26:25.113Z,10.37
2019-04-23T21:29:37.746Z,10.37
2019-04-23T21:32:43.726Z,9.03
2019-04-23T21:36:03.187Z,9.57
2019-04-23T21:39:10.407Z,11.13
2019-04-23T21:42:14.224Z,11.53
2019-04-23T21:45:13.157Z,11.40
2019-04-23T21:48:36.676Z,11.27
2019-04-23T21:51:46.445Z,11.47
2019-04-23T21:54:30.755Z,11.03
2019-04-23T21:57:42.101Z,12.37
2019-04-23T22:00:44.456Z,11.13
2019-04-23T22:04:05.149Z,11.63
2019-04-23T22:09:53.348Z,13.10
2019-04-23T22:13:09.579Z,12.50
2019-04-23T22:16:07.271Z,12.23
2019-04-23T22:19:10.468Z,11.93
2019-04-23T22:22:00.854Z,14.40
2019-04-23T22:25:02.977Z,13.40
2019-04-23T22:28:21.153Z,13.83
2019-04-23T22:31:18.605Z,12.27
2019-04-23T22:34:21.708Z,13.70
2019-04-23T22:37:39.803Z,14.13
2019-04-23T22:40:31.390Z,13.47
2019-04-23T22:44:02.397Z,12.57
2019-04-23T22:46:52.999Z,13.93
2019-04-23T22:49:47.938Z,11.77
2019-04-23T22:52:54.048Z,13.53
2019-04-23T22:55:57.671Z,12.47
2019-04-23T22:59:18.706Z,13.27
2019-04-23T23:02:18.567Z,11.93
2019-04-23T23:05:14.118Z,13.07
2019-04-23T23:11:13.668Z,11.40
2019-04-23T23:17:24.204Z,12.73
2019-04-23T23:20:29.592Z,12.07
2019-04-23T23:26:54.367Z,12.80
2019-04-23T23:29:49.391Z,13.47
2019-04-23T23:32:51.732Z,12.73
2019-04-23T23:39:00.487Z,13.57
2019-04-23T23:41:57.191Z,12.77
2019-04-23T23:45:03.548Z,15.67
2019-04-23T23:51:15.861Z,14.33
